Latest Weather Observations for Telfer

IDW60801

Issued at 11:33 pm WST Tuesday 26 July 2016 (issued every 30 minutes, with the page automatically refreshed every 10 minutes)

About weather observations | Map of weather stations | Latest weather observations for WA | Other Formats
Station Details ID: 013030 Name: TELFER AERO Lat: -21.71 Lon: 122.23 Height: 291.9 m
Data from the previous 72 hours. | See also: Recent months at Telfer
Date/Time
WST
Temp
°C
App
Temp
°C
Dew
Point
°C
Rel
Hum
%
Delta-T
°C
Wind Press
QNH
hPa
Press
MSL
hPa
Rain since
9am
mm
Dir  Spd
km/h
Gust
km/h
Spd
kts
Gust
kts
26/11:30pm 16.1 8.7 -3.4 26 7.8 SE 26 33 14 18 1020.9 1020.2 0.0
26/11:00pm 16.8 9.1 -3.3 25 8.2 SE 28 33 15 18 1021.1 1020.4 0.0
26/10:30pm 17.4 9.6 -3.4 24 8.5 SE 28 37 15 20 1021.2 1020.5 0.0
26/10:00pm 17.8 10.8 -3.6 23 8.7 SE 24 32 13 17 1021.1 1020.4 0.0
26/09:30pm 18.2 10.8 -3.8 22 9.0 SE 26 33 14 18 1021.0 1020.3 0.0
26/09:00pm 18.6 11.5 -4.1 21 9.2 SE 24 33 13 18 1020.8 1020.1 0.0
26/08:30pm 18.9 12.2 -4.5 20 9.5 SE 22 30 12 16 1020.8 1020.1 0.0
26/08:00pm 19.4 13.1 -4.1 20 9.6 SE 20 26 11 14 1020.6 1019.9 0.0
26/07:30pm 19.5 13.3 -3.4 21 9.6 SE 20 24 11 13 1020.1 1019.5 0.0
26/07:00pm 20.6 14.6 -3.1 20 10.0 SE 19 22 10 12 1019.8 1019.2 0.0
26/06:30pm 21.6 15.0 -3.0 19 10.5 SE 22 28 12 15 1019.4 1018.7 0.0
26/06:00pm 22.5 15.5 -3.7 17 11.1 SE 24 32 13 17 1019.0 1018.3 0.0
26/05:30pm 23.3 15.4 -4.8 15 11.8 ESE 28 35 15 19 1018.8 1018.1 0.0
26/05:00pm 24.2 15.5 -4.9 14 12.3 SE 32 41 17 22 1018.4 1017.7 0.0
26/04:30pm 24.8 16.0 -4.5 14 12.6 SE 33 46 18 25 1018.1 1017.4 0.0
26/04:00pm 25.2 15.6 -4.2 14 12.7 SE 37 48 20 26 1018.0 1017.3 0.0
26/03:30pm 25.2 16.0 -4.2 14 12.7 SE 35 46 19 25 1017.9 1017.2 0.0
26/03:00pm 25.5 16.7 -3.9 14 12.8 SE 33 43 18 23 1017.7 1017.0 0.0
26/02:30pm 25.1 15.9 -4.2 14 12.7 ESE 35 44 19 24 1017.8 1017.1 0.0
26/02:00pm 25.2 16.4 -4.2 14 12.7 SE 33 46 18 25 1018.0 1017.3 0.0
26/01:30pm 25.2 16.6 -2.4 16 12.3 SE 33 44 18 24 1018.2 1017.5 0.0
26/01:00pm 24.8 15.9 -1.9 17 12.0 SE 35 50 19 27 1018.4 1017.7 0.0
26/12:34pm 24.4 16.2 -0.7 19 11.5 SE 32 50 17 27 1018.8 1018.1 0.0
26/12:30pm 24.0 15.8 -1.0 19 11.4 SE 32 41 17 22 1018.9 1018.2 0.0
26/12:00pm 23.4 14.7 -0.8 20 11.0 SE 35 46 19 25 1019.5 1018.9 0.0
26/11:30am 22.8 14.1 -0.6 21 10.6 SE 35 46 19 25 1020.0 1019.4 0.0
26/11:00am 22.5 14.4 -0.3 22 10.3 SE 32 41 17 22 1020.7 1020.0 0.0
26/10:30am 20.6 12.4 -0.7 24 9.5 SE 32 43 17 23 1021.2 1020.5 0.0
26/10:00am 18.8 10.0 -1.1 26 8.6 SE 35 43 19 23 1021.4 1020.7 0.0
26/09:30am 18.3 9.6 -0.5 28 8.2 SE 35 46 19 25 1021.7 1021.0 0.0
26/09:00am 17.2 8.8 -1.0 29 7.8 SE 33 43 18 23 1021.9 1021.2 0.0
26/08:30am 16.2 7.9 -1.4 30 7.4 SE 32 41 17 22 1021.7 1021.0 0.0
26/08:00am 15.8 7.9 -1.3 31 7.2 SE 30 41 16 22 1021.5 1020.8 0.0
26/07:30am 15.6 7.3 -1.4 31 7.1 SE 32 39 17 21 1020.8 1020.1 0.0
26/07:00am 15.4 7.9 -1.6 31 7.1 SE 28 37 15 20 1020.7 1020.0 0.0
26/06:30am 15.4 7.9 -1.6 31 7.1 SE 28 33 15 18 1020.5 1019.8 0.0
26/06:00am 15.5 8.3 -2.0 30 7.2 SE 26 35 14 19 1019.9 1019.3 0.0
26/05:30am 15.6 8.0 -1.9 30 7.3 SE 28 35 15 19 1019.5 1018.9 0.0
26/05:00am 15.5 8.4 -1.5 31 7.1 SE 26 33 14 18 1019.5 1018.9 0.0
26/04:30am 15.3 8.1 -1.7 31 7.1 SE 26 33 14 18 1019.6 1019.0 0.0
26/04:00am 15.2 8.1 -1.4 32 6.9 SE 26 33 14 18 1019.5 1018.9 0.0
26/03:30am 15.7 8.6 -1.4 31 7.2 SE 26 35 14 19 1019.6 1019.0 0.0
26/03:00am 16.1 9.0 -1.5 30 7.4 SE 26 32 14 17 1019.4 1018.7 0.0
26/02:30am 16.5 9.8 -1.1 30 7.5 SE 24 30 13 16 1019.3 1018.6 0.0
26/02:00am 16.9 9.8 -1.2 29 7.7 SE 26 30 14 16 1019.2 1018.5 0.0
26/01:30am 17.4 10.7 -1.3 28 8.0 SE 24 33 13 18 1019.2 1018.5 0.0
26/01:00am 17.9 10.8 -1.3 27 8.2 SE 26 32 14 17 1019.3 1018.6 0.0
26/12:30am 18.5 11.0 -1.3 26 8.5 SE 28 35 15 19 1019.1 1018.4 0.0
26/12:00am 19.1 12.7 -1.4 25 8.8 SE 22 26 12 14 1019.2 1018.5 0.0
 
Date/Time
WST
Temp
°C
App
Temp
°C
Dew
Point
°C
Rel
Hum
%
Delta-T
°C
Wind Press
QNH
hPa
Press
MSL
hPa
Rain since
9am
mm
Dir  Spd
km/h
Gust
km/h
Spd
kts
Gust
kts
25/11:30pm 19.3 13.5 -1.2 25 8.9 SE 19 24 10 13 1019.2 1018.5 0.0
25/11:00pm 19.9 14.1 -1.2 24 9.2 SE 19 22 10 12 1019.4 1018.7 0.0
25/10:30pm 20.3 14.5 -1.5 23 9.5 SE 19 22 10 12 1019.6 1019.0 0.0
25/10:00pm 20.9 15.1 -1.6 22 9.8 SE 19 22 10 12 1019.7 1019.1 0.0
25/09:30pm 20.8 15.8 -1.1 23 9.7 SE 15 17 8 9 1019.7 1019.1 0.0
25/09:00pm 21.8 16.4 -1.5 21 10.3 SE 17 20 9 11 1019.6 1019.0 0.0
25/08:30pm 22.4 17.0 -1.0 21 10.5 ESE 17 20 9 11 1019.5 1018.9 0.0
25/08:00pm 22.5 17.1 -1.6 20 10.7 SE 17 20 9 11 1019.6 1019.0 0.0
25/07:30pm 22.8 16.9 -2.0 19 11.0 ESE 19 22 10 12 1019.2 1018.5 0.0
25/07:00pm 23.0 16.9 -2.6 18 11.2 SE 20 30 11 16 1018.9 1018.2 0.0
25/06:30pm 23.2 17.1 -2.4 18 11.3 SE 20 24 11 13 1018.6 1017.9 0.0
25/06:00pm 23.5 17.4 -2.2 18 11.4 SE 20 30 11 16 1018.3 1017.6 0.0
25/05:30pm 23.9 17.6 -1.1 19 11.3 SE 22 30 12 16 1017.9 1017.2 0.0
25/05:00pm 24.3 18.0 -0.8 19 11.5 ESE 22 28 12 15 1017.5 1016.8 0.0
25/04:30pm 24.7 18.1 -0.4 19 11.6 SE 24 30 13 16 1017.4 1016.7 0.0
25/04:00pm 25.6 19.4 -0.5 18 12.1 SE 22 30 12 16 1017.2 1016.5 0.0
25/03:30pm 24.9 18.3 -0.3 19 11.7 ESE 24 30 13 16 1017.0 1016.3 0.0
25/03:00pm 24.7 18.1 -0.4 19 11.6 SE 24 33 13 18 1017.0 1016.3 0.0
25/02:30pm 25.2 19.4 0.0 19 11.8 ESE 20 30 11 16 1017.3 1016.6 0.0
25/02:00pm 24.9 17.9 -0.3 19 11.7 SE 26 39 14 21 1017.4 1016.7 0.0
25/01:30pm 24.6 18.1 0.2 20 11.4 SE 24 32 13 17 1017.7 1017.0 0.0
25/01:00pm 24.3 17.4 -0.1 20 11.3 SE 26 35 14 19 1018.2 1017.5 0.0
25/12:30pm 23.6 17.5 0.7 22 10.7 SE 22 33 12 18 1018.8 1018.1 0.0
25/12:00pm 22.3 15.4 0.2 23 10.1 SE 26 33 14 18 1019.5 1018.9 0.0
25/11:30am 22.2 15.8 0.7 24 10.0 ESE 24 32 13 17 1020.2 1019.6 0.0
25/11:00am 21.4 14.6 0.6 25 9.5 SE 26 32 14 17 1020.8 1020.1 0.0
25/10:30am 20.7 13.6 1.1 27 9.0 SE 28 35 15 19 1021.3 1020.6 0.0
25/10:00am 18.5 11.3 0.6 30 8.0 ESE 28 37 15 20 1021.7 1021.0 0.0
25/09:30am 17.5 10.4 1.1 33 7.4 ESE 28 37 15 20 1021.7 1021.0 0.0
25/09:00am 16.8 9.3 0.9 34 7.0 SE 30 39 16 21 1021.7 1021.0 0.0
25/08:30am 16.8 9.7 1.3 35 7.0 SE 28 39 15 21 1021.7 1021.0 0.0
25/08:00am 16.3 8.7 0.8 35 6.8 SE 30 39 16 21 1021.3 1020.6 0.0
25/07:30am 15.9 8.7 0.9 36 6.6 SE 28 33 15 18 1021.1 1020.4 0.0
25/07:00am 15.8 8.6 0.8 36 6.6 SE 28 39 15 21 1020.7 1020.0 0.0
25/06:30am 16.0 9.9 0.2 34 6.9 SE 22 28 12 15 1020.7 1020.0 0.0
25/06:00am 16.1 9.5 -0.2 33 7.0 ESE 24 32 13 17 1020.1 1019.5 0.0
25/05:30am 16.1 9.5 -0.2 33 7.0 SE 24 30 13 16 1020.0 1019.4 0.0
25/05:00am 16.1 9.5 -0.2 33 7.0 SE 24 32 13 17 1019.6 1019.0 0.0
25/04:30am 16.2 9.3 -0.1 33 7.1 SE 26 35 14 19 1019.3 1018.6 0.0
25/04:00am 16.3 9.4 0.0 33 7.1 SE 26 33 14 18 1019.4 1018.7 0.0
25/03:30am 16.5 10.0 0.2 33 7.1 SE 24 30 13 16 1019.1 1018.4 0.0
25/03:00am 16.7 9.8 0.4 33 7.1 SE 26 33 14 18 1019.1 1018.4 0.0
25/02:30am 16.9 10.0 0.1 32 7.4 SE 26 33 14 18 1019.4 1018.7 0.0
25/02:00am 17.0 10.2 0.6 33 7.2 SE 26 35 14 19 1019.4 1018.7 0.0
25/01:30am 17.2 10.8 0.8 33 7.3 SE 24 32 13 17 1019.5 1018.9 0.0
25/01:00am 17.5 11.0 0.6 32 7.5 SE 24 35 13 19 1019.8 1019.2 0.0
25/12:30am 17.9 10.7 0.6 31 7.7 SE 28 35 15 19 1019.8 1019.2 0.0
25/12:00am 17.9 10.7 0.6 31 7.7 SE 28 35 15 19 1020.0 1019.4 0.0
 
Date/Time
WST
Temp
°C
App
Temp
°C
Dew
Point
°C
Rel
Hum
%
Delta-T
°C
Wind Press
QNH
hPa
Press
MSL
hPa
Rain since
9am
mm
Dir  Spd
km/h
Gust
km/h
Spd
kts
Gust
kts
24/11:30pm 17.9 11.6 1.4 33 7.5 SE 24 32 13 17 1020.5 1019.8 0.0
24/11:00pm 17.9 10.7 1.0 32 7.6 SE 28 33 15 18 1020.4 1019.7 0.0
24/10:30pm 18.1 11.4 1.2 32 7.6 SE 26 32 14 17 1020.6 1019.9 0.0
24/10:00pm 18.2 11.9 1.3 32 7.6 SE 24 35 13 19 1020.8 1020.1 0.0
24/09:30pm 18.3 11.6 1.3 32 7.7 SE 26 39 14 21 1020.7 1020.0 0.0
24/09:00pm 19.0 12.5 0.6 29 8.3 SSE 24 35 13 19 1020.5 1019.8 0.0
24/08:30pm 19.5 12.2 0.0 27 8.7 SE 28 37 15 20 1020.5 1019.8 0.0
24/08:00pm 19.7 12.8 0.2 27 8.7 SE 26 35 14 19 1020.4 1019.7 0.0
24/07:30pm 20.1 12.8 0.0 26 9.0 SSE 28 39 15 21 1020.1 1019.5 0.0
24/07:00pm 20.4 13.6 0.8 27 8.9 SSE 26 33 14 18 1019.8 1019.2 0.0
24/06:30pm 20.8 13.6 0.6 26 9.2 SSE 28 39 15 21 1019.3 1018.6 0.0
24/06:00pm 21.2 14.0 0.4 25 9.5 SSE 28 35 15 19 1019.0 1018.3 0.0
24/05:30pm 21.8 15.3 0.4 24 9.8 SE 24 33 13 18 1018.4 1017.7 0.0
24/05:00pm 22.7 15.5 0.5 23 10.3 ESE 28 37 15 20 1018.1 1017.4 0.0
24/04:30pm 23.2 15.6 0.3 22 10.6 SE 30 35 16 19 1018.0 1017.3 0.0
24/04:00pm 23.5 16.4 1.2 23 10.5 SE 28 37 15 20 1018.0 1017.3 0.0
24/03:30pm 24.3 17.1 0.6 21 11.1 ESE 28 39 15 21 1017.7 1017.0 0.0
24/03:00pm 23.6 15.7 1.3 23 10.5 SE 32 39 17 21 1017.8 1017.1 0.0
24/02:30pm 24.0 16.7 2.2 24 10.5 SE 30 44 16 24 1017.7 1017.0 0.0
24/02:00pm 23.9 16.7 3.2 26 10.2 ESE 30 39 16 21 1017.8 1017.1 0.0
24/01:30pm 23.0 15.8 3.0 27 9.7 ESE 30 41 16 22 1018.2 1017.5 0.0
24/01:00pm 23.2 16.0 3.2 27 9.8 SE 30 46 16 25 1018.8 1018.1 0.0
24/12:30pm 22.4 14.9 3.5 29 9.2 ESE 32 41 17 22 1019.3 1018.6 0.0
24/12:00pm 21.0 13.5 3.7 32 8.4 ESE 32 43 17 23 1020.0 1019.4 0.0
24/11:30am 20.1 12.4 3.3 33 8.1 ESE 33 44 18 24 1020.7 1020.0 0.0
24/11:00am 20.0 12.6 4.1 35 7.7 ESE 32 41 17 22 1021.2 1020.5 0.0
24/10:30am 19.1 10.9 4.5 38 7.1 SE 37 50 20 27 1021.6 1020.9 0.0
24/10:00am 18.5 11.0 4.7 40 6.7 ESE 33 46 18 25 1021.7 1021.0 0.0
24/09:30am 17.5 9.3 4.8 43 6.2 ESE 37 46 20 25 1021.5 1020.8 0.0
24/09:00am 17.0 9.2 5.0 45 5.8 SE 35 44 19 24 1021.9 1021.2 0.0
24/08:30am 16.2 8.8 5.2 48 5.3 SE 33 41 18 22 1022.1 1021.4 0.0
24/08:00am 16.2 8.9 5.5 49 5.2 SE 33 41 18 22 1021.4 1020.7 0.0
24/07:30am 16.0 9.0 5.9 51 4.9 SE 32 39 17 21 1021.1 1020.4 0.0
24/07:00am 15.6 9.0 6.1 53 4.6 SE 30 41 16 22 1020.5 1019.8 0.0
24/06:30am 15.5 8.5 6.0 53 4.6 SE 32 43 17 23 1020.5 1019.8 0.0
24/06:00am 15.6 8.9 5.5 51 4.9 SE 30 39 16 21 1019.8 1019.2 0.0
24/05:30am 15.8 9.1 5.4 50 5.0 SE 30 37 16 20 1019.5 1018.9 0.0
24/05:00am 16.1 9.7 5.1 48 5.3 SE 28 39 15 21 1019.2 1018.5 0.0
24/04:30am 16.3 10.2 4.7 46 5.6 SE 26 37 14 20 1018.8 1018.1 0.0
24/04:00am 16.4 10.4 5.1 47 5.5 SE 26 35 14 19 1018.4 1017.7 0.0
24/03:30am 16.4 9.9 4.8 46 5.6 SE 28 35 15 19 1018.5 1017.8 0.0
24/03:00am 16.6 10.0 4.3 44 5.8 SE 28 35 15 19 1018.5 1017.8 0.0
24/02:30am 16.5 10.0 4.5 45 5.7 SE 28 33 15 18 1018.6 1017.9 0.0
24/02:00am 16.4 9.8 4.1 44 5.8 SE 28 35 15 19 1018.6 1017.9 0.0
24/01:30am 16.5 10.0 4.5 45 5.7 SE 28 33 15 18 1018.7 1018.0 0.0
24/01:00am 16.5 10.7 4.5 45 5.7 SE 24 32 13 17 1018.8 1018.1 0.0
24/12:30am 16.5 11.5 4.5 45 5.7 SE 20 26 11 14 1019.1 1018.4 0.0
24/12:00am 16.3 11.5 4.7 46 5.5 SE 19 24 10 13 1019.1 1018.4 0.0

Other Formats:

Comma delimited format used in spreadsheet applications
http://www.bom.gov.au/fwo/IDW60801/IDW60801.94319.axf

JavaScript Object Notation format (JSON) in row-major order
http://www.bom.gov.au/fwo/IDW60801/IDW60801.94319.json